sensor_id;sensor_type;location;lat;lon;timestamp;temperature;humidity
24085;DHT22;12268;52.110;5.548;2023-03-21T00:00:53;12.20;99.90
24085;DHT22;12268;52.110;5.548;2023-03-21T00:03:18;12.10;99.90
24085;DHT22;12268;52.110;5.548;2023-03-21T00:05:44;12.40;99.90
24085;DHT22;12268;52.110;5.548;2023-03-21T00:08:14;12.10;99.90
24085;DHT22;12268;52.110;5.548;2023-03-21T00:10:40;12.00;99.90
24085;DHT22;12268;52.110;5.548;2023-03-21T00:13:06;12.10;99.90
24085;DHT22;12268;52.110;5.548;2023-03-21T00:15:31;12.20;99.90
24085;DHT22;12268;52.110;5.548;2023-03-21T00:17:57;12.20;99.90
24085;DHT22;12268;52.110;5.548;2023-03-21T00:20:30;12.10;99.90
24085;DHT22;12268;52.110;5.548;2023-03-21T00:23:01;12.20;99.90
24085;DHT22;12268;52.110;5.548;2023-03-21T00:25:27;12.10;99.90
24085;DHT22;12268;52.110;5.548;2023-03-21T00:27:53;12.10;99.90
24085;DHT22;12268;52.110;5.548;2023-03-21T00:30:19;12.00;99.90
24085;DHT22;12268;52.110;5.548;2023-03-21T00:32:46;12.20;99.90
24085;DHT22;12268;52.110;5.548;2023-03-21T00:35:11;12.30;99.90
24085;DHT22;12268;52.110;5.548;2023-03-21T00:37:38;12.30;99.90
24085;DHT22;12268;52.110;5.548;2023-03-21T00:40:04;12.20;99.90
24085;DHT22;12268;52.110;5.548;2023-03-21T00:42:36;12.20;99.90
24085;DHT22;12268;52.110;5.548;2023-03-21T00:45:03;11.80;99.90
24085;DHT22;12268;52.110;5.548;2023-03-21T00:47:29;11.90;99.90
24085;DHT22;12268;52.110;5.548;2023-03-21T00:49:55;12.00;99.90
24085;DHT22;12268;52.110;5.548;2023-03-21T00:52:21;11.90;99.90
24085;DHT22;12268;52.110;5.548;2023-03-21T00:54:47;11.80;99.90
24085;DHT22;12268;52.110;5.548;2023-03-21T00:57:13;11.80;99.90
24085;DHT22;12268;52.110;5.548;2023-03-21T00:59:38;12.00;99.90
24085;DHT22;12268;52.110;5.548;2023-03-21T01:02:04;12.00;99.90
24085;DHT22;12268;52.110;5.548;2023-03-21T01:04:32;12.00;99.90
24085;DHT22;12268;52.110;5.548;2023-03-21T01:06:59;12.00;99.90
24085;DHT22;12268;52.110;5.548;2023-03-21T01:09:25;12.20;99.90
24085;DHT22;12268;52.110;5.548;2023-03-21T01:11:50;12.00;99.90
24085;DHT22;12268;52.110;5.548;2023-03-21T01:14:18;12.00;99.90
24085;DHT22;12268;52.110;5.548;2023-03-21T01:16:44;12.00;99.90
24085;DHT22;12268;52.110;5.548;2023-03-21T01:19:15;12.10;99.90
24085;DHT22;12268;52.110;5.548;2023-03-21T01:21:42;12.10;99.90
24085;DHT22;12268;52.110;5.548;2023-03-21T01:24:08;12.20;99.90
24085;DHT22;12268;52.110;5.548;2023-03-21T01:26:35;12.10;99.90
24085;DHT22;12268;52.110;5.548;2023-03-21T01:29:02;12.20;99.90
24085;DHT22;12268;52.110;5.548;2023-03-21T01:31:28;12.10;99.90
24085;DHT22;12268;52.110;5.548;2023-03-21T01:33:54;12.10;99.90
24085;DHT22;12268;52.110;5.548;2023-03-21T01:36:22;11.90;99.90
24085;DHT22;12268;52.110;5.548;2023-03-21T01:38:48;11.80;99.90
24085;DHT22;12268;52.110;5.548;2023-03-21T01:41:23;11.80;99.90
24085;DHT22;12268;52.110;5.548;2023-03-21T01:43:49;12.10;99.90
24085;DHT22;12268;52.110;5.548;2023-03-21T01:51:47;11.90;99.90
24085;DHT22;12268;52.110;5.548;2023-03-21T01:54:19;11.90;99.90
24085;DHT22;12268;52.110;5.548;2023-03-21T01:56:49;11.80;99.90
24085;DHT22;12268;52.110;5.548;2023-03-21T01:59:20;12.00;99.90
24085;DHT22;12268;52.110;5.548;2023-03-21T02:01:49;12.00;99.90
24085;DHT22;12268;52.110;5.548;2023-03-21T02:04:17;12.10;99.90
24085;DHT22;12268;52.110;5.548;2023-03-21T02:07:04;11.90;99.90
24085;DHT22;12268;52.110;5.548;2023-03-21T02:09:34;12.00;99.90
24085;DHT22;12268;52.110;5.548;2023-03-21T02:12:01;12.10;99.90
24085;DHT22;12268;52.110;5.548;2023-03-21T02:14:27;12.00;99.90
24085;DHT22;12268;52.110;5.548;2023-03-21T02:17:17;11.90;99.90
24085;DHT22;12268;52.110;5.548;2023-03-21T02:31:27;12.00;99.90
24085;DHT22;12268;52.110;5.548;2023-03-21T02:37:06;11.80;99.90
24085;DHT22;12268;52.110;5.548;2023-03-21T02:42:27;11.60;99.90
24085;DHT22;12268;52.110;5.548;2023-03-21T02:45:20;11.50;99.90
24085;DHT22;12268;52.110;5.548;2023-03-21T02:47:49;11.80;99.90
24085;DHT22;12268;52.110;5.548;2023-03-21T02:50:18;11.70;99.90
24085;DHT22;12268;52.110;5.548;2023-03-21T02:52:48;11.70;99.90
24085;DHT22;12268;52.110;5.548;2023-03-21T02:55:25;11.80;99.90
24085;DHT22;12268;52.110;5.548;2023-03-21T02:57:53;11.90;99.90
24085;DHT22;12268;52.110;5.548;2023-03-21T03:00:22;11.90;99.90
24085;DHT22;12268;52.110;5.548;2023-03-21T03:02:48;11.90;99.90
24085;DHT22;12268;52.110;5.548;2023-03-21T03:05:23;11.90;99.90
24085;DHT22;12268;52.110;5.548;2023-03-21T03:16:27;11.80;99.90
24085;DHT22;12268;52.110;5.548;2023-03-21T03:18:59;11.80;99.90
24085;DHT22;12268;52.110;5.548;2023-03-21T03:21:39;11.90;99.90
24085;DHT22;12268;52.110;5.548;2023-03-21T03:26:46;12.00;99.90
24085;DHT22;12268;52.110;5.548;2023-03-21T03:29:16;12.10;99.90
24085;DHT22;12268;52.110;5.548;2023-03-21T03:31:55;12.10;99.90
24085;DHT22;12268;52.110;5.548;2023-03-21T03:34:25;12.10;99.90
24085;DHT22;12268;52.110;5.548;2023-03-21T03:36:56;12.10;99.90
24085;DHT22;12268;52.110;5.548;2023-03-21T03:39:31;12.00;99.90
24085;DHT22;12268;52.110;5.548;2023-03-21T03:42:03;12.00;99.90
24085;DHT22;12268;52.110;5.548;2023-03-21T03:44:30;12.00;99.90
24085;DHT22;12268;52.110;5.548;2023-03-21T03:47:09;12.00;99.90
24085;DHT22;12268;52.110;5.548;2023-03-21T03:49:40;12.10;99.90
24085;DHT22;12268;52.110;5.548;2023-03-21T03:52:16;12.20;99.90
24085;DHT22;12268;52.110;5.548;2023-03-21T03:54:44;12.00;99.90
24085;DHT22;12268;52.110;5.548;2023-03-21T03:57:11;11.90;99.90
24085;DHT22;12268;52.110;5.548;2023-03-21T03:59:40;11.80;99.90
24085;DHT22;12268;52.110;5.548;2023-03-21T04:02:06;11.80;99.90
24085;DHT22;12268;52.110;5.548;2023-03-21T04:04:32;11.90;99.90
24085;DHT22;12268;52.110;5.548;2023-03-21T04:06:58;11.90;99.90
24085;DHT22;12268;52.110;5.548;2023-03-21T04:09:25;11.90;99.90
24085;DHT22;12268;52.110;5.548;2023-03-21T04:11:53;12.00;99.90
24085;DHT22;12268;52.110;5.548;2023-03-21T04:14:19;11.90;99.90
24085;DHT22;12268;52.110;5.548;2023-03-21T04:16:45;12.00;99.90
24085;DHT22;12268;52.110;5.548;2023-03-21T04:19:10;12.00;99.90
24085;DHT22;12268;52.110;5.548;2023-03-21T04:21:36;12.10;99.90
24085;DHT22;12268;52.110;5.548;2023-03-21T04:24:02;12.00;99.90
24085;DHT22;12268;52.110;5.548;2023-03-21T04:26:28;12.20;99.90
24085;DHT22;12268;52.110;5.548;2023-03-21T04:28:57;12.20;99.90
24085;DHT22;12268;52.110;5.548;2023-03-21T04:31:25;12.10;99.90
24085;DHT22;12268;52.110;5.548;2023-03-21T04:33:53;11.90;99.90
24085;DHT22;12268;52.110;5.548;2023-03-21T04:36:20;11.90;99.90
24085;DHT22;12268;52.110;5.548;2023-03-21T04:38:56;11.90;99.90
24085;DHT22;12268;52.110;5.548;2023-03-21T04:41:28;11.90;99.90
24085;DHT22;12268;52.110;5.548;2023-03-21T04:43:55;11.80;99.90
24085;DHT22;12268;52.110;5.548;2023-03-21T04:46:22;11.80;99.90
24085;DHT22;12268;52.110;5.548;2023-03-21T04:48:47;11.80;99.90
24085;DHT22;12268;52.110;5.548;2023-03-21T04:51:14;12.00;99.90
24085;DHT22;12268;52.110;5.548;2023-03-21T04:53:39;12.00;99.90
24085;DHT22;12268;52.110;5.548;2023-03-21T04:56:08;11.80;99.90
24085;DHT22;12268;52.110;5.548;2023-03-21T04:58:33;11.90;99.90
24085;DHT22;12268;52.110;5.548;2023-03-21T05:00:59;12.10;99.90
24085;DHT22;12268;52.110;5.548;2023-03-21T05:03:26;12.20;99.90
24085;DHT22;12268;52.110;5.548;2023-03-21T05:05:54;12.20;99.90
24085;DHT22;12268;52.110;5.548;2023-03-21T05:08:20;12.10;99.90
24085;DHT22;12268;52.110;5.548;2023-03-21T05:10:45;11.90;99.90
24085;DHT22;12268;52.110;5.548;2023-03-21T05:13:11;11.80;99.90
24085;DHT22;12268;52.110;5.548;2023-03-21T05:15:36;11.70;99.90
24085;DHT22;12268;52.110;5.548;2023-03-21T05:18:02;11.80;99.90
24085;DHT22;12268;52.110;5.548;2023-03-21T05:20:39;11.70;99.90
24085;DHT22;12268;52.110;5.548;2023-03-21T05:23:09;11.70;99.90
24085;DHT22;12268;52.110;5.548;2023-03-21T05:25:37;11.90;99.90
24085;DHT22;12268;52.110;5.548;2023-03-21T05:28:04;12.00;99.90
24085;DHT22;12268;52.110;5.548;2023-03-21T05:30:30;12.00;99.90
24085;DHT22;12268;52.110;5.548;2023-03-21T05:32:55;12.10;99.90
24085;DHT22;12268;52.110;5.548;2023-03-21T05:35:21;11.90;99.90
24085;DHT22;12268;52.110;5.548;2023-03-21T05:37:47;12.00;99.90
24085;DHT22;12268;52.110;5.548;2023-03-21T05:40:12;12.20;99.90
24085;DHT22;12268;52.110;5.548;2023-03-21T05:42:38;12.40;99.90
24085;DHT22;12268;52.110;5.548;2023-03-21T05:45:04;12.40;99.90
24085;DHT22;12268;52.110;5.548;2023-03-21T05:47:30;12.50;99.90
24085;DHT22;12268;52.110;5.548;2023-03-21T05:49:55;12.50;99.90
24085;DHT22;12268;52.110;5.548;2023-03-21T05:52:21;12.60;99.90
24085;DHT22;12268;52.110;5.548;2023-03-21T05:54:47;12.70;99.90
24085;DHT22;12268;52.110;5.548;2023-03-21T05:57:12;12.90;99.90
24085;DHT22;12268;52.110;5.548;2023-03-21T05:59:38;13.00;99.90
24085;DHT22;12268;52.110;5.548;2023-03-21T06:02:03;13.00;99.90
24085;DHT22;12268;52.110;5.548;2023-03-21T06:04:29;13.00;99.90
24085;DHT22;12268;52.110;5.548;2023-03-21T06:06:55;13.10;99.90
24085;DHT22;12268;52.110;5.548;2023-03-21T06:09:21;13.20;99.90
24085;DHT22;12268;52.110;5.548;2023-03-21T06:11:49;13.20;99.90
24085;DHT22;12268;52.110;5.548;2023-03-21T06:14:15;13.20;99.90
24085;DHT22;12268;52.110;5.548;2023-03-21T06:16:41;13.20;99.90
24085;DHT22;12268;52.110;5.548;2023-03-21T06:19:07;13.40;99.90
24085;DHT22;12268;52.110;5.548;2023-03-21T06:21:33;13.20;99.90
24085;DHT22;12268;52.110;5.548;2023-03-21T06:23:58;13.20;99.90
24085;DHT22;12268;52.110;5.548;2023-03-21T06:26:24;13.30;99.90
24085;DHT22;12268;52.110;5.548;2023-03-21T06:28:50;13.30;99.90
24085;DHT22;12268;52.110;5.548;2023-03-21T06:31:16;13.20;99.90
24085;DHT22;12268;52.110;5.548;2023-03-21T06:33:42;13.30;99.90
24085;DHT22;12268;52.110;5.548;2023-03-21T06:36:07;13.30;99.90
24085;DHT22;12268;52.110;5.548;2023-03-21T06:38:33;13.40;99.90
24085;DHT22;12268;52.110;5.548;2023-03-21T06:41:05;13.50;99.90
24085;DHT22;12268;52.110;5.548;2023-03-21T06:43:32;13.50;99.90
24085;DHT22;12268;52.110;5.548;2023-03-21T06:45:57;13.30;99.90
24085;DHT22;12268;52.110;5.548;2023-03-21T06:48:23;13.30;99.90
24085;DHT22;12268;52.110;5.548;2023-03-21T06:50:50;13.20;99.90
24085;DHT22;12268;52.110;5.548;2023-03-21T06:53:16;13.40;99.90
24085;DHT22;12268;52.110;5.548;2023-03-21T06:55:42;13.20;99.90
24085;DHT22;12268;52.110;5.548;2023-03-21T06:58:07;13.20;99.90
24085;DHT22;12268;52.110;5.548;2023-03-21T07:00:33;13.20;99.90
24085;DHT22;12268;52.110;5.548;2023-03-21T07:02:59;13.20;99.90
24085;DHT22;12268;52.110;5.548;2023-03-21T07:05:26;13.20;99.90
24085;DHT22;12268;52.110;5.548;2023-03-21T07:07:51;13.10;99.90
24085;DHT22;12268;52.110;5.548;2023-03-21T07:10:17;13.00;99.90
24085;DHT22;12268;52.110;5.548;2023-03-21T07:12:42;12.90;99.90
24085;DHT22;12268;52.110;5.548;2023-03-21T07:15:09;13.00;99.90
24085;DHT22;12268;52.110;5.548;2023-03-21T07:17:34;12.80;99.90
24085;DHT22;12268;52.110;5.548;2023-03-21T07:20:01;12.70;99.90
24085;DHT22;12268;52.110;5.548;2023-03-21T07:22:30;12.70;99.90
24085;DHT22;12268;52.110;5.548;2023-03-21T07:24:56;12.70;99.90
24085;DHT22;12268;52.110;5.548;2023-03-21T07:27:21;12.50;99.90
24085;DHT22;12268;52.110;5.548;2023-03-21T07:29:47;12.40;99.90
24085;DHT22;12268;52.110;5.548;2023-03-21T07:32:14;12.50;99.90
24085;DHT22;12268;52.110;5.548;2023-03-21T07:34:40;12.40;99.90
24085;DHT22;12268;52.110;5.548;2023-03-21T07:37:06;12.30;99.90
24085;DHT22;12268;52.110;5.548;2023-03-21T07:39:32;12.30;99.90
24085;DHT22;12268;52.110;5.548;2023-03-21T07:41:59;12.50;99.90
24085;DHT22;12268;52.110;5.548;2023-03-21T07:44:24;12.40;99.90
24085;DHT22;12268;52.110;5.548;2023-03-21T07:46:50;12.30;99.90
24085;DHT22;12268;52.110;5.548;2023-03-21T07:49:15;12.20;99.90
24085;DHT22;12268;52.110;5.548;2023-03-21T07:51:41;12.10;99.90
24085;DHT22;12268;52.110;5.548;2023-03-21T07:54:07;12.20;99.90
24085;DHT22;12268;52.110;5.548;2023-03-21T07:56:33;12.20;99.90
24085;DHT22;12268;52.110;5.548;2023-03-21T07:58:58;12.30;99.90
24085;DHT22;12268;52.110;5.548;2023-03-21T08:01:25;12.30;99.90
24085;DHT22;12268;52.110;5.548;2023-03-21T08:03:50;12.40;99.90
24085;DHT22;12268;52.110;5.548;2023-03-21T08:06:19;12.20;99.90
24085;DHT22;12268;52.110;5.548;2023-03-21T08:08:45;12.10;99.90
24085;DHT22;12268;52.110;5.548;2023-03-21T08:11:11;12.00;99.90
24085;DHT22;12268;52.110;5.548;2023-03-21T08:13:37;12.00;99.90
24085;DHT22;12268;52.110;5.548;2023-03-21T08:16:03;12.20;99.90
24085;DHT22;12268;52.110;5.548;2023-03-21T08:18:29;12.30;99.90
24085;DHT22;12268;52.110;5.548;2023-03-21T08:20:56;12.50;99.90
24085;DHT22;12268;52.110;5.548;2023-03-21T08:23:23;12.30;99.90
24085;DHT22;12268;52.110;5.548;2023-03-21T08:25:55;12.20;99.90
24085;DHT22;12268;52.110;5.548;2023-03-21T08:28:21;12.20;99.90
24085;DHT22;12268;52.110;5.548;2023-03-21T08:30:48;12.20;99.90
24085;DHT22;12268;52.110;5.548;2023-03-21T08:33:14;12.20;99.90
24085;DHT22;12268;52.110;5.548;2023-03-21T08:35:41;12.40;99.90
24085;DHT22;12268;52.110;5.548;2023-03-21T08:38:07;12.30;99.90
24085;DHT22;12268;52.110;5.548;2023-03-21T08:40:33;12.40;99.90
24085;DHT22;12268;52.110;5.548;2023-03-21T08:42:59;12.20;99.90
24085;DHT22;12268;52.110;5.548;2023-03-21T08:45:25;12.10;99.90
24085;DHT22;12268;52.110;5.548;2023-03-21T08:47:51;12.20;99.90
24085;DHT22;12268;52.110;5.548;2023-03-21T08:50:19;12.20;99.90
24085;DHT22;12268;52.110;5.548;2023-03-21T08:52:45;12.20;99.90
24085;DHT22;12268;52.110;5.548;2023-03-21T08:55:12;12.30;99.90
24085;DHT22;12268;52.110;5.548;2023-03-21T08:57:37;12.40;99.90
24085;DHT22;12268;52.110;5.548;2023-03-21T09:00:05;12.60;99.90
24085;DHT22;12268;52.110;5.548;2023-03-21T09:02:35;12.60;99.90
24085;DHT22;12268;52.110;5.548;2023-03-21T09:05:01;12.90;99.90
24085;DHT22;12268;52.110;5.548;2023-03-21T09:07:26;13.10;99.90
24085;DHT22;12268;52.110;5.548;2023-03-21T09:09:52;13.30;99.90
24085;DHT22;12268;52.110;5.548;2023-03-21T09:12:18;13.60;99.90
24085;DHT22;12268;52.110;5.548;2023-03-21T09:14:43;13.80;99.90
24085;DHT22;12268;52.110;5.548;2023-03-21T09:17:09;13.70;99.90
24085;DHT22;12268;52.110;5.548;2023-03-21T09:19:36;13.90;99.90
24085;DHT22;12268;52.110;5.548;2023-03-21T09:22:03;13.90;99.90
24085;DHT22;12268;52.110;5.548;2023-03-21T09:24:29;13.70;99.90
24085;DHT22;12268;52.110;5.548;2023-03-21T09:26:55;13.60;99.90
24085;DHT22;12268;52.110;5.548;2023-03-21T09:29:21;13.40;99.90
24085;DHT22;12268;52.110;5.548;2023-03-21T09:31:47;13.50;99.90
24085;DHT22;12268;52.110;5.548;2023-03-21T09:34:13;13.50;99.90
24085;DHT22;12268;52.110;5.548;2023-03-21T09:36:40;13.40;99.90
24085;DHT22;12268;52.110;5.548;2023-03-21T09:39:08;13.50;99.90
24085;DHT22;12268;52.110;5.548;2023-03-21T09:47:28;13.80;99.90
24085;DHT22;12268;52.110;5.548;2023-03-21T09:50:03;13.50;99.90
24085;DHT22;12268;52.110;5.548;2023-03-21T09:52:58;13.30;99.90
24085;DHT22;12268;52.110;5.548;2023-03-21T09:55:27;13.30;99.90
24085;DHT22;12268;52.110;5.548;2023-03-21T09:58:06;13.50;99.90
24085;DHT22;12268;52.110;5.548;2023-03-21T10:00:37;13.70;99.90
24085;DHT22;12268;52.110;5.548;2023-03-21T10:03:19;13.70;99.90
24085;DHT22;12268;52.110;5.548;2023-03-21T10:05:48;13.70;99.90
24085;DHT22;12268;52.110;5.548;2023-03-21T10:08:20;13.70;99.90
24085;DHT22;12268;52.110;5.548;2023-03-21T10:10:49;13.80;99.90
24085;DHT22;12268;52.110;5.548;2023-03-21T10:13:23;13.90;99.90
24085;DHT22;12268;52.110;5.548;2023-03-21T10:15:49;14.10;99.90
24085;DHT22;12268;52.110;5.548;2023-03-21T10:18:26;14.00;99.90
24085;DHT22;12268;52.110;5.548;2023-03-21T10:20:53;14.00;99.90
24085;DHT22;12268;52.110;5.548;2023-03-21T10:23:21;14.10;99.90
24085;DHT22;12268;52.110;5.548;2023-03-21T10:26:01;13.90;99.90
24085;DHT22;12268;52.110;5.548;2023-03-21T10:28:30;14.00;99.90
24085;DHT22;12268;52.110;5.548;2023-03-21T10:31:17;14.00;99.90
24085;DHT22;12268;52.110;5.548;2023-03-21T10:33:46;14.00;99.90
24085;DHT22;12268;52.110;5.548;2023-03-21T10:36:21;14.30;99.90
24085;DHT22;12268;52.110;5.548;2023-03-21T10:38:53;14.40;99.90
24085;DHT22;12268;52.110;5.548;2023-03-21T10:41:19;14.50;99.90
24085;DHT22;12268;52.110;5.548;2023-03-21T10:44:01;14.50;99.90
24085;DHT22;12268;52.110;5.548;2023-03-21T10:46:28;14.50;99.90
24085;DHT22;12268;52.110;5.548;2023-03-21T10:48:54;14.30;99.90
24085;DHT22;12268;52.110;5.548;2023-03-21T10:51:31;14.20;99.90
24085;DHT22;12268;52.110;5.548;2023-03-21T10:53:59;14.40;99.90
24085;DHT22;12268;52.110;5.548;2023-03-21T10:56:30;14.60;99.90
24085;DHT22;12268;52.110;5.548;2023-03-21T10:59:00;14.90;99.90
24085;DHT22;12268;52.110;5.548;2023-03-21T11:01:39;15.10;99.90
24085;DHT22;12268;52.110;5.548;2023-03-21T11:04:17;15.20;99.90
24085;DHT22;12268;52.110;5.548;2023-03-21T11:06:49;15.20;99.90
24085;DHT22;12268;52.110;5.548;2023-03-21T11:09:21;15.40;99.90
24085;DHT22;12268;52.110;5.548;2023-03-21T11:12:03;15.20;99.90
24085;DHT22;12268;52.110;5.548;2023-03-21T11:20:07;14.70;99.90
24085;DHT22;12268;52.110;5.548;2023-03-21T11:22:40;14.70;99.90
24085;DHT22;12268;52.110;5.548;2023-03-21T11:25:09;14.70;99.90
24085;DHT22;12268;52.110;5.548;2023-03-21T11:27:53;14.80;99.90
24085;DHT22;12268;52.110;5.548;2023-03-21T11:30:25;15.00;99.90
24085;DHT22;12268;52.110;5.548;2023-03-21T11:33:01;15.50;99.90
24085;DHT22;12268;52.110;5.548;2023-03-21T11:35:37;15.60;99.90
24085;DHT22;12268;52.110;5.548;2023-03-21T11:38:04;15.80;99.90
24085;DHT22;12268;52.110;5.548;2023-03-21T11:40:33;16.30;99.90
24085;DHT22;12268;52.110;5.548;2023-03-21T11:45:28;16.30;99.90
24085;DHT22;12268;52.110;5.548;2023-03-21T11:47:57;16.10;99.90
24085;DHT22;12268;52.110;5.548;2023-03-21T12:04:19;15.90;99.90
24085;DHT22;12268;52.110;5.548;2023-03-21T12:09:28;15.70;99.90
24085;DHT22;12268;52.110;5.548;2023-03-21T12:17:47;15.30;99.90
24085;DHT22;12268;52.110;5.548;2023-03-21T12:20:38;15.40;99.90
24085;DHT22;12268;52.110;5.548;2023-03-21T12:39:38;15.60;99.90
24085;DHT22;12268;52.110;5.548;2023-03-21T12:44:48;15.60;99.90
24085;DHT22;12268;52.110;5.548;2023-03-21T12:47:35;15.70;99.90
24085;DHT22;12268;52.110;5.548;2023-03-21T12:50:25;15.70;99.90
24085;DHT22;12268;52.110;5.548;2023-03-21T12:52:58;15.90;99.90
24085;DHT22;12268;52.110;5.548;2023-03-21T12:55:33;15.80;99.90
24085;DHT22;12268;52.110;5.548;2023-03-21T12:58:15;15.90;99.90
24085;DHT22;12268;52.110;5.548;2023-03-21T13:00:54;15.80;99.90
24085;DHT22;12268;52.110;5.548;2023-03-21T13:08:25;16.10;99.90
24085;DHT22;12268;52.110;5.548;2023-03-21T13:10:53;16.00;99.90
24085;DHT22;12268;52.110;5.548;2023-03-21T13:13:21;16.20;99.90
24085;DHT22;12268;52.110;5.548;2023-03-21T13:16:08;16.60;99.90
24085;DHT22;12268;52.110;5.548;2023-03-21T13:18:42;18.00;99.90
24085;DHT22;12268;52.110;5.548;2023-03-21T13:21:19;19.50;99.90
24085;DHT22;12268;52.110;5.548;2023-03-21T13:24:00;20.20;99.90
24085;DHT22;12268;52.110;5.548;2023-03-21T13:26:37;20.50;99.90
24085;DHT22;12268;52.110;5.548;2023-03-21T13:29:12;20.00;99.90
24085;DHT22;12268;52.110;5.548;2023-03-21T13:31:43;18.90;99.90
24085;DHT22;12268;52.110;5.548;2023-03-21T13:34:09;18.10;99.90
24085;DHT22;12268;52.110;5.548;2023-03-21T13:36:37;18.30;99.90
24085;DHT22;12268;52.110;5.548;2023-03-21T13:39:04;18.20;99.90
24085;DHT22;12268;52.110;5.548;2023-03-21T13:41:37;18.30;99.90
24085;DHT22;12268;52.110;5.548;2023-03-21T13:51:56;17.00;99.90
24085;DHT22;12268;52.110;5.548;2023-03-21T13:54:43;16.80;99.90
24085;DHT22;12268;52.110;5.548;2023-03-21T13:57:23;16.70;99.90
24085;DHT22;12268;52.110;5.548;2023-03-21T14:00:28;16.60;99.90
24085;DHT22;12268;52.110;5.548;2023-03-21T14:03:08;16.70;99.90
24085;DHT22;12268;52.110;5.548;2023-03-21T14:05:37;16.70;99.90
24085;DHT22;12268;52.110;5.548;2023-03-21T14:08:09;16.50;99.90
24085;DHT22;12268;52.110;5.548;2023-03-21T14:10:42;16.40;99.90
24085;DHT22;12268;52.110;5.548;2023-03-21T14:13:15;16.40;99.90
24085;DHT22;12268;52.110;5.548;2023-03-21T14:15:51;16.30;99.90
24085;DHT22;12268;52.110;5.548;2023-03-21T14:18:23;16.40;99.90
24085;DHT22;12268;52.110;5.548;2023-03-21T14:20:53;16.60;99.90
24085;DHT22;12268;52.110;5.548;2023-03-21T14:23:19;16.60;99.90
24085;DHT22;12268;52.110;5.548;2023-03-21T14:25:46;16.50;99.90
24085;DHT22;12268;52.110;5.548;2023-03-21T14:28:22;16.80;99.90
24085;DHT22;12268;52.110;5.548;2023-03-21T14:30:56;16.70;99.90
24085;DHT22;12268;52.110;5.548;2023-03-21T14:33:38;16.40;99.90
24085;DHT22;12268;52.110;5.548;2023-03-21T14:36:12;15.90;99.90
24085;DHT22;12268;52.110;5.548;2023-03-21T14:38:39;15.70;99.90
24085;DHT22;12268;52.110;5.548;2023-03-21T14:41:18;15.70;99.90
24085;DHT22;12268;52.110;5.548;2023-03-21T14:43:56;15.70;99.90
24085;DHT22;12268;52.110;5.548;2023-03-21T14:46:22;15.90;99.90
24085;DHT22;12268;52.110;5.548;2023-03-21T14:48:47;15.90;99.90
24085;DHT22;12268;52.110;5.548;2023-03-21T14:51:13;16.00;99.90
24085;DHT22;12268;52.110;5.548;2023-03-21T14:53:40;16.10;99.90
24085;DHT22;12268;52.110;5.548;2023-03-21T14:56:21;16.30;99.90
24085;DHT22;12268;52.110;5.548;2023-03-21T14:58:47;16.40;99.90
24085;DHT22;12268;52.110;5.548;2023-03-21T15:01:16;16.40;99.90
24085;DHT22;12268;52.110;5.548;2023-03-21T15:03:46;16.40;99.90
24085;DHT22;12268;52.110;5.548;2023-03-21T15:06:14;16.20;99.90
24085;DHT22;12268;52.110;5.548;2023-03-21T15:08:55;15.90;99.90
24085;DHT22;12268;52.110;5.548;2023-03-21T15:11:33;15.80;99.90
24085;DHT22;12268;52.110;5.548;2023-03-21T15:14:02;15.90;99.90
24085;DHT22;12268;52.110;5.548;2023-03-21T15:16:29;16.20;99.90
24085;DHT22;12268;52.110;5.548;2023-03-21T15:18:56;16.00;99.90
24085;DHT22;12268;52.110;5.548;2023-03-21T15:21:28;15.90;99.90
24085;DHT22;12268;52.110;5.548;2023-03-21T15:23:59;15.80;99.90
24085;DHT22;12268;52.110;5.548;2023-03-21T15:26:30;15.40;99.90
24085;DHT22;12268;52.110;5.548;2023-03-21T15:28:57;15.40;99.90
24085;DHT22;12268;52.110;5.548;2023-03-21T15:31:29;15.40;99.90
24085;DHT22;12268;52.110;5.548;2023-03-21T15:33:55;15.40;99.90
24085;DHT22;12268;52.110;5.548;2023-03-21T15:36:45;15.60;99.90
24085;DHT22;12268;52.110;5.548;2023-03-21T15:39:13;15.70;99.90
24085;DHT22;12268;52.110;5.548;2023-03-21T15:41:40;15.80;99.90
24085;DHT22;12268;52.110;5.548;2023-03-21T15:46:44;15.80;99.90
24085;DHT22;12268;52.110;5.548;2023-03-21T15:54:19;15.10;99.90
24085;DHT22;12268;52.110;5.548;2023-03-21T15:56:46;15.20;99.90
24085;DHT22;12268;52.110;5.548;2023-03-21T15:59:16;15.20;99.90
24085;DHT22;12268;52.110;5.548;2023-03-21T16:01:47;15.20;99.90
24085;DHT22;12268;52.110;5.548;2023-03-21T16:04:14;15.40;99.90
24085;DHT22;12268;52.110;5.548;2023-03-21T16:07:03;15.20;99.90
24085;DHT22;12268;52.110;5.548;2023-03-21T16:09:45;15.00;99.90
24085;DHT22;12268;52.110;5.548;2023-03-21T16:12:12;15.00;99.90
24085;DHT22;12268;52.110;5.548;2023-03-21T16:14:47;15.00;99.90
24085;DHT22;12268;52.110;5.548;2023-03-21T16:17:31;14.90;99.90
24085;DHT22;12268;52.110;5.548;2023-03-21T16:19:58;15.00;99.90
24085;DHT22;12268;52.110;5.548;2023-03-21T16:22:24;15.00;99.90
24085;DHT22;12268;52.110;5.548;2023-03-21T16:24:50;15.00;99.90
24085;DHT22;12268;52.110;5.548;2023-03-21T16:27:16;15.00;99.90
24085;DHT22;12268;52.110;5.548;2023-03-21T16:29:43;14.90;99.90
24085;DHT22;12268;52.110;5.548;2023-03-21T16:32:14;14.90;99.90
24085;DHT22;12268;52.110;5.548;2023-03-21T16:34:40;14.60;99.90
24085;DHT22;12268;52.110;5.548;2023-03-21T16:37:12;14.20;99.90
24085;DHT22;12268;52.110;5.548;2023-03-21T16:39:40;13.70;99.90
24085;DHT22;12268;52.110;5.548;2023-03-21T16:42:06;13.40;99.90
24085;DHT22;12268;52.110;5.548;2023-03-21T16:44:31;13.10;99.90
24085;DHT22;12268;52.110;5.548;2023-03-21T16:46:58;13.10;99.90
24085;DHT22;12268;52.110;5.548;2023-03-21T16:49:25;12.90;99.90
24085;DHT22;12268;52.110;5.548;2023-03-21T16:51:55;12.80;99.90
24085;DHT22;12268;52.110;5.548;2023-03-21T16:54:21;12.90;99.90
24085;DHT22;12268;52.110;5.548;2023-03-21T16:56:52;12.90;99.90
24085;DHT22;12268;52.110;5.548;2023-03-21T16:59:18;12.90;99.90
24085;DHT22;12268;52.110;5.548;2023-03-21T17:01:44;13.00;99.90
24085;DHT22;12268;52.110;5.548;2023-03-21T17:04:11;13.20;99.90
24085;DHT22;12268;52.110;5.548;2023-03-21T17:06:44;13.30;99.90
24085;DHT22;12268;52.110;5.548;2023-03-21T17:09:11;13.40;99.90
24085;DHT22;12268;52.110;5.548;2023-03-21T17:11:37;13.60;99.90
24085;DHT22;12268;52.110;5.548;2023-03-21T17:14:06;13.90;99.90
24085;DHT22;12268;52.110;5.548;2023-03-21T17:16:32;13.90;99.90
24085;DHT22;12268;52.110;5.548;2023-03-21T17:18:58;13.90;99.90
24085;DHT22;12268;52.110;5.548;2023-03-21T17:21:27;13.90;99.90
24085;DHT22;12268;52.110;5.548;2023-03-21T17:23:54;13.90;99.90
24085;DHT22;12268;52.110;5.548;2023-03-21T17:26:27;13.90;99.90
24085;DHT22;12268;52.110;5.548;2023-03-21T17:28:55;14.10;99.90
24085;DHT22;12268;52.110;5.548;2023-03-21T17:31:25;14.00;99.90
24085;DHT22;12268;52.110;5.548;2023-03-21T17:33:51;13.70;99.90